This is the latest recevied weather packets stored in our database for station/object N0FDH. If no packets are shown the sender has not sent any weather packets the latest 10 day(s).
| Time | Temp. | Humidity | Pressure | Rain* | Wind** | Luminosity | Snow |
|---|---|---|---|---|---|---|---|
| 1777452984 | 5.56° C | 66% | 1015.5 hPa | 0 mm | - | 0 W/m² | - |
| 1777452681 | 5.56° C | 65% | 1015.6 hPa | 0 mm | - | 0 W/m² | - |
| 1777452377 | 5.56° C | 66% | 1015.5 hPa | 0 mm | - | 0 W/m² | - |
| 1777452073 | 5.56° C | 65% | 1015.3 hPa | 0 mm | - | 0 W/m² | - |
| 1777451768 | 5° C | 66% | 1015.4 hPa | 0 mm | - | 0 W/m² | - |
| 1777451464 | 5° C | 65% | 1015.3 hPa | 0 mm | - | 0 W/m² | - |
| 1777451160 | 5° C | 65% | 1015.5 hPa | 0 mm | - | 0 W/m² | - |
| 1777450857 | 5° C | 66% | 1015.3 hPa | 0 mm | - | 0 W/m² | - |
| 1777450551 | 5° C | 67% | 1015.4 hPa | 0 mm | - | 0 W/m² | - |
| 1777450248 | 5° C | 66% | 1015.4 hPa | 0 mm | - | 0 W/m² | - |
| 1777449944 | 5° C | 66% | 1015.4 hPa | 0 mm | - | 0 W/m² | - |
| 1777449642 | 5° C | 66% | 1015.2 hPa | 0 mm | - | 0 W/m² | - |
| 1777449337 | 5° C | 65% | 1015.1 hPa | 0 mm | - | 0 W/m² | - |
| 1777439378 | 6.67° C | 57% | 1015.6 hPa | 0 mm | - | 0 W/m² | - |
| 1777439078 | 6.67° C | 57% | 1015.6 hPa | 0 mm | - | 0 W/m² | - |
| 1777438776 | 6.67° C | 57% | 1015.6 hPa | 0 mm | - | 0 W/m² | - |
| 1777438472 | 6.67° C | 55% | 1015.8 hPa | 0 mm | - | 0 W/m² | - |
| 1777438168 | 6.67° C | 56% | 1015.7 hPa | 0 mm | - | 0 W/m² | - |
| 1777437863 | 7.22° C | 54% | 1015.9 hPa | 0 mm | - | 0 W/m² | - |
| 1777437560 | 7.22° C | 55% | 1015.9 hPa | 0 mm | - | 0 W/m² | - |
| 1777437258 | 7.22° C | 56% | 1015.9 hPa | 0 mm | - | 0 W/m² | - |
| 1777436954 | 7.22° C | 58% | 1016 hPa | 0 mm | - | 0 W/m² | - |
| 1777436651 | 7.22° C | 56% | 1015.9 hPa | 0 mm | - | 0 W/m² | - |
| 1777436347 | 7.22° C | 55% | 1015.7 hPa | 0 mm | - | 0 W/m² | - |
| 1777436042 | 7.22° C | 54% | 1015.8 hPa | 0 mm | - | 0 W/m² | - |
* Rain latest hour (hover to see other rain measurements)
** Current wind speed in m/s (hover to see current wind gust speed)